Time;durP1;ratioP1;P1;durP2;ratioP2;P2;SDS_P1;SDS_P2;PMS_P1;PMS_P2;Temp;Humidity;BMP_temperature;BMP_pressure;BME280_temperature;BME280_humidity;BME280_pressure;Samples;Min_cycle;Max_cycle;Signal;HPM_P1;HPM_P2
2022/06/13 00:01:35;;;;;;;2.55;1.35;;;;;;;;;;5035894;28;20630;-85
2022/06/13 00:04:04;;;;;;;1.83;1.05;;;;;;;;;;5035339;28;20211;-85
2022/06/13 00:06:31;;;;;;;1.05;1.05;;;;;;;;;;5035268;28;20238;-86
2022/06/13 00:08:58;;;;;;;1.92;1.20;;;;;;;;;;5035759;28;20211;-85
2022/06/13 00:11:26;;;;;;;2.65;1.10;;;;;;;;;;5035018;28;20611;-86
2022/06/13 00:13:56;;;;;;;1.38;1.27;;;;;;;;;;5035226;28;20341;-86
2022/06/13 00:16:23;;;;;;;1.70;1.40;;;;;;;;;;5034985;28;20234;-86
2022/06/13 00:18:50;;;;;;;1.00;0.95;;;;;;;;;;5035186;28;20202;-86
2022/06/13 00:21:18;;;;;;;1.30;1.27;;;;;;;;;;5034921;28;20273;-86
2022/06/13 00:23:46;;;;;;;1.25;1.25;;;;;;;;;;5035574;28;20218;-85
2022/06/13 00:26:14;;;;;;;1.50;1.40;;;;;;;;;;5034963;28;20664;-86
2022/06/13 00:28:41;;;;;;;1.63;1.30;;;;;;;;;;5035452;28;20682;-86
2022/06/13 00:31:09;;;;;;;1.13;1.13;;;;;;;;;;5034846;28;20241;-86
2022/06/13 00:33:36;;;;;;;2.87;1.43;;;;;;;;;;5035401;28;20210;-86
2022/06/13 00:36:03;;;;;;;1.87;1.20;;;;;;;;;;5034751;28;20230;-86
2022/06/13 00:38:30;;;;;;;1.10;1.10;;;;;;;;;;5035537;28;20693;-86
2022/06/13 00:40:58;;;;;;;4.35;1.20;;;;;;;;;;5034574;28;20249;-86
2022/06/13 00:43:25;;;;;;;4.15;1.73;;;;;;;;;;5034747;28;20210;-86
2022/06/13 00:45:52;;;;;;;1.30;1.20;;;;;;;;;;5034138;28;20687;-86
2022/06/13 00:48:23;;;;;;;1.20;1.10;;;;;;;;;;5034948;28;20211;-86
2022/06/13 00:50:54;;;;;;;1.33;1.30;;;;;;;;;;5034433;28;20238;-86
2022/06/13 00:53:23;;;;;;;1.33;1.27;;;;;;;;;;5033685;28;20191;-85
2022/06/13 00:55:51;;;;;;;1.67;1.30;;;;;;;;;;5034110;28;20235;-86
2022/06/13 00:58:19;;;;;;;2.15;1.20;;;;;;;;;;5034843;28;20207;-86
2022/06/13 01:00:49;;;;;;;1.40;1.30;;;;;;;;;;5035404;28;20246;-85
2022/06/13 01:03:16;;;;;;;1.47;1.37;;;;;;;;;;5038388;28;20222;-86
2022/06/13 01:05:46;;;;;;;1.20;1.10;;;;;;;;;;5043745;28;20230;-85
2022/06/13 01:08:14;;;;;;;2.10;1.33;;;;;;;;;;5036274;28;20250;-85
2022/06/13 01:13:28;;;;;;;3.20;1.50;;;;;;;;;;5057492;28;20232;-85
2022/06/13 01:16:07;;;;;;;2.10;1.27;;;;;;;;;;5057390;28;20240;-85
2022/06/13 01:18:52;;;;;;;1.47;1.30;;;;;;;;;;5057207;28;20194;-86
2022/06/13 01:21:26;;;;;;;1.50;1.40;;;;;;;;;;5057584;28;20230;-85
2022/06/13 01:24:04;;;;;;;1.27;1.27;;;;;;;;;;5057696;28;20526;-85
2022/06/13 01:26:57;;;;;;;1.77;1.43;;;;;;;;;;5038932;28;20262;-86
2022/06/13 01:29:37;;;;;;;2.73;1.40;;;;;;;;;;5037422;28;20242;-85
2022/06/13 01:32:10;;;;;;;2.00;1.20;;;;;;;;;;5037461;28;20581;-85
2022/06/13 01:34:46;;;;;;;2.50;1.50;;;;;;;;;;5036657;28;20238;-85
2022/06/13 01:37:19;;;;;;;1.40;1.40;;;;;;;;;;5037060;28;20222;-85
2022/06/13 01:39:53;;;;;;;1.20;1.20;;;;;;;;;;5033100;28;20234;-85
2022/06/13 01:42:25;;;;;;;2.33;1.87;;;;;;;;;;5033413;28;20187;-85
2022/06/13 01:44:55;;;;;;;1.10;1.10;;;;;;;;;;5032339;28;20235;-85
2022/06/13 01:47:29;;;;;;;1.57;1.47;;;;;;;;;;5033209;28;20222;-85
2022/06/13 01:49:59;;;;;;;1.60;1.50;;;;;;;;;;5032925;28;20241;-85
2022/06/13 01:52:29;;;;;;;1.83;1.40;;;;;;;;;;5033751;28;20218;-85
2022/06/13 01:54:59;;;;;;;2.03;1.50;;;;;;;;;;5032589;28;20238;-85
2022/06/13 01:57:31;;;;;;;1.93;1.40;;;;;;;;;;5033372;28;20693;-85
2022/06/13 02:00:04;;;;;;;3.57;1.30;;;;;;;;;;5032732;28;20263;-85
2022/06/13 02:02:36;;;;;;;1.30;1.30;;;;;;;;;;5036032;28;20601;-85
2022/06/13 02:05:06;;;;;;;1.17;1.10;;;;;;;;;;5033042;28;20230;-85
2022/06/13 02:07:36;;;;;;;3.13;1.40;;;;;;;;;;5033134;28;20227;-85
2022/06/13 02:10:06;;;;;;;2.90;1.43;;;;;;;;;;5033102;28;20453;-85
2022/06/13 02:12:36;;;;;;;1.50;1.37;;;;;;;;;;5033418;28;20210;-85
2022/06/13 02:15:07;;;;;;;1.43;1.33;;;;;;;;;;5032269;28;20661;-86
2022/06/13 02:17:37;;;;;;;1.70;1.30;;;;;;;;;;5033304;28;20202;-85
2022/06/13 02:20:07;;;;;;;3.77;1.70;;;;;;;;;;5032710;28;20226;-85
2022/06/13 02:22:37;;;;;;;1.53;1.43;;;;;;;;;;5032579;28;20635;-85
2022/06/13 02:25:06;;;;;;;4.03;2.07;;;;;;;;;;5031939;28;20636;-85
2022/06/13 02:27:35;;;;;;;1.50;1.40;;;;;;;;;;5032837;28;20233;-85
2022/06/13 02:30:05;;;;;;;1.87;1.57;;;;;;;;;;5032419;28;20230;-85
2022/06/13 02:32:34;;;;;;;4.77;1.90;;;;;;;;;;5032923;28;20260;-86
2022/06/13 02:35:05;;;;;;;3.53;1.50;;;;;;;;;;5032034;28;20234;-85
2022/06/13 02:37:35;;;;;;;1.77;1.50;;;;;;;;;;5033237;28;20195;-86
2022/06/13 02:40:04;;;;;;;2.20;1.53;;;;;;;;;;5032322;28;20261;-85
2022/06/13 02:42:33;;;;;;;2.93;1.40;;;;;;;;;;5032670;28;20206;-85
2022/06/13 02:45:03;;;;;;;1.97;1.77;;;;;;;;;;5031698;28;20234;-85
2022/06/13 02:47:31;;;;;;;3.77;1.83;;;;;;;;;;5032576;28;20237;-85
2022/06/13 02:50:02;;;;;;;2.50;1.37;;;;;;;;;;5031856;28;20230;-85
2022/06/13 02:52:33;;;;;;;1.23;1.23;;;;;;;;;;5032649;28;20215;-85
2022/06/13 02:55:03;;;;;;;1.93;1.40;;;;;;;;;;5031626;28;20836;-85
2022/06/13 02:57:35;;;;;;;1.80;1.50;;;;;;;;;;5031426;28;20210;-85
2022/06/13 03:00:15;;;;;;;1.87;1.70;;;;;;;;;;5032046;28;20230;-85
2022/06/13 03:02:46;;;;;;;1.60;1.50;;;;;;;;;;5049606;28;20639;-85
2022/06/13 03:05:17;;;;;;;3.07;1.70;;;;;;;;;;5051604;28;20865;-85
2022/06/13 03:07:50;;;;;;;1.47;1.37;;;;;;;;;;5052011;28;20222;-86
2022/06/13 03:10:20;;;;;;;2.90;1.57;;;;;;;;;;5051796;28;20238;-85
2022/06/13 03:12:52;;;;;;;1.77;1.60;;;;;;;;;;5052449;28;20194;-85
2022/06/13 03:15:22;;;;;;;1.40;1.30;;;;;;;;;;5051341;28;20636;-85
2022/06/13 03:17:52;;;;;;;1.87;1.57;;;;;;;;;;5052227;28;20205;-85
2022/06/13 03:20:20;;;;;;;2.67;2.00;;;;;;;;;;5051457;28;20237;-85
2022/06/13 03:22:51;;;;;;;1.80;1.50;;;;;;;;;;5052360;28;20216;-85
2022/06/13 03:25:21;;;;;;;3.03;1.80;;;;;;;;;;5051026;28;20237;-85
2022/06/13 03:27:51;;;;;;;1.57;1.47;;;;;;;;;;5051613;28;20233;-85
2022/06/13 03:30:20;;;;;;;1.90;1.70;;;;;;;;;;5049350;28;20233;-85
2022/06/13 03:33:40;;;;;;;1.40;1.30;;;;;;;;;;5030421;28;20221;-85
2022/06/13 03:35:37;;;;;;;2.63;1.60;;;;;;;;;;5011037;28;20239;-85
2022/06/13 03:38:08;;;;;;;2.43;1.60;;;;;;;;;;5011790;28;20325;-85
2022/06/13 03:40:37;;;;;;;1.60;1.50;;;;;;;;;;5011348;28;20688;-85
2022/06/13 03:43:05;;;;;;;3.60;1.80;;;;;;;;;;5012043;28;20207;-85
2022/06/13 03:45:36;;;;;;;2.03;1.43;;;;;;;;;;5011603;28;20235;-85
2022/06/13 03:48:05;;;;;;;1.70;1.60;;;;;;;;;;5011919;28;20680;-85
2022/06/13 03:50:35;;;;;;;2.73;1.63;;;;;;;;;;5011414;28;20222;-85
2022/06/13 03:53:03;;;;;;;1.50;1.40;;;;;;;;;;5019601;28;20678;-86
2022/06/13 03:55:34;;;;;;;1.40;1.30;;;;;;;;;;5028127;28;20242;-85
2022/06/13 03:58:05;;;;;;;2.80;1.50;;;;;;;;;;5031081;28;20206;-85
2022/06/13 04:00:34;;;;;;;1.50;1.40;;;;;;;;;;5030929;28;20234;-85
2022/06/13 04:03:05;;;;;;;6.83;1.77;;;;;;;;;;5029614;28;20214;-85
2022/06/13 04:05:35;;;;;;;1.53;1.43;;;;;;;;;;5041178;28;20721;-82
2022/06/13 04:08:03;;;;;;;1.40;1.37;;;;;;;;;;5047692;28;20222;-82
2022/06/13 04:10:35;;;;;;;2.63;1.67;;;;;;;;;;5046113;28;20226;-82
2022/06/13 04:13:23;;;;;;;3.10;1.60;;;;;;;;;;5046820;28;20209;-83
2022/06/13 04:16:17;;;;;;;1.80;1.70;;;;;;;;;;5011622;28;20234;-82
2022/06/13 04:18:50;;;;;;;2.17;1.90;;;;;;;;;;5009414;28;20198;-81
2022/06/13 04:21:24;;;;;;;1.60;1.50;;;;;;;;;;5045274;28;20245;-82
2022/06/13 04:23:53;;;;;;;1.93;1.57;;;;;;;;;;5042199;28;20218;-83
2022/06/13 04:26:24;;;;;;;4.37;1.70;;;;;;;;;;5038687;28;20234;-83
2022/06/13 04:28:54;;;;;;;1.70;1.60;;;;;;;;;;5040656;28;20191;-82
2022/06/13 04:31:22;;;;;;;1.80;1.70;;;;;;;;;;5038008;28;20234;-83
2022/06/13 04:33:51;;;;;;;1.73;1.57;;;;;;;;;;5038263;28;20298;-83
2022/06/13 04:36:19;;;;;;;3.60;1.80;;;;;;;;;;5039534;28;20238;-82
2022/06/13 04:38:48;;;;;;;1.63;1.53;;;;;;;;;;5040678;28;20213;-82
2022/06/13 04:41:16;;;;;;;2.33;1.93;;;;;;;;;;5040695;28;20241;-82
2022/06/13 04:43:46;;;;;;;1.67;1.63;;;;;;;;;;5041290;28;20203;-83
2022/06/13 04:46:15;;;;;;;2.67;1.90;;;;;;;;;;5037317;28;20733;-83
2022/06/13 04:48:43;;;;;;;1.70;1.60;;;;;;;;;;5043932;28;20214;-82
2022/06/13 04:51:11;;;;;;;2.50;1.93;;;;;;;;;;5041877;28;20243;-82
2022/06/13 04:53:43;;;;;;;7.77;2.37;;;;;;;;;;5042007;28;20265;-82
2022/06/13 04:56:10;;;;;;;2.20;2.03;;;;;;;;;;5040953;28;20646;-82
2022/06/13 04:58:39;;;;;;;4.23;2.00;;;;;;;;;;5041826;28;20204;-82
2022/06/13 05:01:11;;;;;;;1.70;1.60;;;;;;;;;;5045053;28;20630;-81
2022/06/13 05:03:41;;;;;;;2.93;1.87;;;;;;;;;;5044948;28;20229;-81
2022/06/13 05:06:15;;;;;;;6.33;2.00;;;;;;;;;;5043616;28;20710;-82
2022/06/13 05:08:43;;;;;;;3.40;1.90;;;;;;;;;;5040720;28;20230;-82
2022/06/13 05:11:13;;;;;;;2.17;1.87;;;;;;;;;;5038509;28;20231;-84
2022/06/13 05:13:40;;;;;;;3.67;1.60;;;;;;;;;;5037825;28;20203;-83
2022/06/13 05:16:14;;;;;;;2.37;1.73;;;;;;;;;;5037899;28;20238;-84
2022/06/13 05:18:56;;;;;;;2.00;1.77;;;;;;;;;;5038075;28;20195;-83
2022/06/13 05:21:34;;;;;;;3.03;1.80;;;;;;;;;;5035356;28;20233;-83
2022/06/13 05:24:12;;;;;;;4.50;2.00;;;;;;;;;;5042549;28;20198;-83
2022/06/13 05:26:39;;;;;;;2.13;1.80;;;;;;;;;;5038160;28;20230;-83
2022/06/13 05:29:06;;;;;;;2.93;1.50;;;;;;;;;;5038031;28;20210;-82
2022/06/13 05:31:34;;;;;;;2.43;1.80;;;;;;;;;;5035952;28;20218;-84
2022/06/13 05:34:16;;;;;;;3.23;1.70;;;;;;;;;;5035051;28;20214;-80
2022/06/13 05:36:43;;;;;;;5.27;1.77;;;;;;;;;;5034919;28;20261;-82
2022/06/13 05:39:10;;;;;;;1.70;1.60;;;;;;;;;;5033550;28;20206;-82
2022/06/13 05:41:37;;;;;;;1.80;1.70;;;;;;;;;;5038422;28;20206;-82
2022/06/13 05:44:04;;;;;;;3.60;1.70;;;;;;;;;;5032032;28;20213;-82
2022/06/13 05:46:33;;;;;;;1.50;1.37;;;;;;;;;;5033416;28;20218;-82
2022/06/13 05:49:01;;;;;;;1.97;1.77;;;;;;;;;;5032802;28;20800;-83
2022/06/13 05:51:28;;;;;;;2.73;1.50;;;;;;;;;;5032485;28;20694;-82
2022/06/13 05:53:57;;;;;;;2.77;1.90;;;;;;;;;;5032552;28;20206;-82
2022/06/13 05:56:25;;;;;;;1.60;1.50;;;;;;;;;;5033510;28;20238;-82
2022/06/13 05:58:52;;;;;;;3.33;1.80;;;;;;;;;;5032524;28;20207;-81
2022/06/13 06:01:20;;;;;;;1.30;1.13;;;;;;;;;;5031800;28;20321;-82
2022/06/13 06:03:47;;;;;;;2.97;1.50;;;;;;;;;;5032072;28;20203;-82
2022/06/13 06:06:18;;;;;;;1.50;1.10;;;;;;;;;;5031768;28;20638;-82
2022/06/13 06:08:45;;;;;;;1.70;1.33;;;;;;;;;;5032423;28;20227;-82
2022/06/13 06:11:12;;;;;;;1.60;1.50;;;;;;;;;;5031837;28;20238;-83
2022/06/13 06:13:39;;;;;;;1.63;1.27;;;;;;;;;;5032122;28;20647;-82
2022/06/13 06:16:06;;;;;;;1.27;1.17;;;;;;;;;;5031678;28;20296;-82
2022/06/13 06:18:33;;;;;;;2.57;1.47;;;;;;;;;;5032944;28;20223;-82
2022/06/13 06:21:01;;;;;;;3.53;1.43;;;;;;;;;;5031522;28;20234;-82
2022/06/13 06:23:29;;;;;;;1.10;1.07;;;;;;;;;;5032507;28;20207;-82
2022/06/13 06:25:58;;;;;;;1.90;1.40;;;;;;;;;;5031422;28;20230;-83
2022/06/13 06:28:26;;;;;;;1.70;1.02;;;;;;;;;;5032049;28;20258;-82
2022/06/13 06:30:54;;;;;;;1.77;1.15;;;;;;;;;;5031616;28;20293;-82
2022/06/13 06:33:21;;;;;;;2.67;1.20;;;;;;;;;;5032003;28;20217;-81
2022/06/13 06:35:49;;;;;;;3.33;1.30;;;;;;;;;;5031055;28;20281;-82
2022/06/13 06:38:16;;;;;;;1.83;1.45;;;;;;;;;;5032411;28;20233;-82
2022/06/13 06:40:44;;;;;;;1.10;1.10;;;;;;;;;;5031682;28;20239;-82
2022/06/13 06:43:12;;;;;;;2.38;1.45;;;;;;;;;;5034471;28;20212;-81
2022/06/13 06:45:39;;;;;;;1.38;1.27;;;;;;;;;;5041645;28;20239;-82
2022/06/13 06:48:06;;;;;;;2.00;1.50;;;;;;;;;;5035356;28;20413;-81
2022/06/13 06:50:34;;;;;;;1.92;1.13;;;;;;;;;;5034803;28;20234;-83
2022/06/13 06:53:02;;;;;;;1.27;1.17;;;;;;;;;;5034752;28;20593;-82
2022/06/13 07:01:03;;;;;;;1.55;1.45;;;;;;;;;;5033702;28;20257;-83
2022/06/13 07:03:30;;;;;;;1.20;1.10;;;;;;;;;;5033318;28;20522;-82
2022/06/13 07:05:57;;;;;;;2.05;0.98;;;;;;;;;;5039956;28;20257;-82
2022/06/13 07:08:24;;;;;;;1.77;1.10;;;;;;;;;;5034505;28;20720;-83
2022/06/13 07:10:51;;;;;;;1.10;1.00;;;;;;;;;;5032003;28;20245;-82
2022/06/13 07:13:21;;;;;;;4.50;1.33;;;;;;;;;;5034687;28;20221;-81
2022/06/13 07:15:48;;;;;;;2.58;1.40;;;;;;;;;;5037457;28;20233;-81
2022/06/13 07:18:15;;;;;;;2.55;1.30;;;;;;;;;;5036070;28;20202;-81
2022/06/13 07:20:42;;;;;;;1.73;0.80;;;;;;;;;;5035928;28;20230;-81
2022/06/13 07:23:09;;;;;;;2.33;1.35;;;;;;;;;;5036142;28;20226;-81
2022/06/13 07:25:36;;;;;;;2.22;1.10;;;;;;;;;;5036907;28;20230;-81
2022/06/13 07:28:04;;;;;;;2.33;1.15;;;;;;;;;;5035614;28;20701;-82
2022/06/13 07:30:33;;;;;;;1.65;1.55;;;;;;;;;;5043122;28;20234;-82
2022/06/13 07:33:01;;;;;;;2.28;1.10;;;;;;;;;;5035070;28;20198;-81
2022/06/13 07:35:29;;;;;;;3.45;0.95;;;;;;;;;;5034245;28;20242;-81
2022/06/13 07:40:41;;;;;;;1.33;1.23;;;;;;;;;;5032689;28;20256;-82
2022/06/13 07:43:09;;;;;;;2.05;1.20;;;;;;;;;;5032505;28;20206;-82
2022/06/13 07:45:39;;;;;;;1.52;1.10;;;;;;;;;;5035858;28;20230;-81
2022/06/13 07:48:07;;;;;;;3.25;1.10;;;;;;;;;;5042086;28;20261;-82
2022/06/13 07:50:35;;;;;;;2.83;1.15;;;;;;;;;;5035989;28;20233;-82
2022/06/13 07:53:02;;;;;;;0.95;0.90;;;;;;;;;;5040164;28;20226;-82
2022/06/13 07:55:30;;;;;;;1.65;1.10;;;;;;;;;;5035679;28;20249;-81
2022/06/13 07:57:57;;;;;;;0.70;0.70;;;;;;;;;;5035602;28;20207;-82
2022/06/13 08:00:26;;;;;;;1.20;1.02;;;;;;;;;;5035891;28;20613;-82
2022/06/13 08:02:54;;;;;;;2.90;1.50;;;;;;;;;;5036070;28;20214;-82
2022/06/13 08:05:21;;;;;;;2.00;1.20;;;;;;;;;;5035072;28;20269;-82
2022/06/13 08:07:49;;;;;;;1.67;1.13;;;;;;;;;;5035009;28;20445;-82
2022/06/13 08:10:16;;;;;;;1.63;0.90;;;;;;;;;;5035084;28;20243;-82
2022/06/13 08:12:44;;;;;;;2.88;1.30;;;;;;;;;;5035131;28;20253;-82
2022/06/13 08:15:12;;;;;;;0.68;0.68;;;;;;;;;;5034732;28;20242;-82
2022/06/13 08:17:39;;;;;;;1.58;1.15;;;;;;;;;;5035374;28;20613;-82
2022/06/13 08:20:09;;;;;;;0.95;0.70;;;;;;;;;;5035091;28;20253;-83
2022/06/13 08:22:41;;;;;;;0.60;0.60;;;;;;;;;;5038477;28;20289;-82
2022/06/13 08:25:08;;;;;;;2.03;0.90;;;;;;;;;;5035270;28;20676;-82
2022/06/13 08:27:35;;;;;;;2.05;1.15;;;;;;;;;;5026379;28;20264;-82
2022/06/13 08:30:02;;;;;;;1.38;1.17;;;;;;;;;;5034092;28;20230;-82
2022/06/13 08:32:29;;;;;;;1.38;0.80;;;;;;;;;;5036238;28;20211;-85
2022/06/13 08:34:56;;;;;;;1.83;0.90;;;;;;;;;;5033717;28;20235;-82
2022/06/13 08:37:25;;;;;;;1.67;1.08;;;;;;;;;;5035929;28;20203;-82
2022/06/13 08:39:52;;;;;;;2.05;0.73;;;;;;;;;;5034973;28;20231;-82
2022/06/13 08:42:20;;;;;;;1.63;0.82;;;;;;;;;;5034255;28;20935;-82
2022/06/13 08:44:52;;;;;;;0.93;0.90;;;;;;;;;;5036500;28;20234;-83
2022/06/13 08:47:24;;;;;;;0.80;0.80;;;;;;;;;;5036784;28;20206;-83
2022/06/13 08:49:52;;;;;;;0.88;0.88;;;;;;;;;;5033547;28;20588;-83
2022/06/13 08:52:25;;;;;;;1.88;0.73;;;;;;;;;;5034316;28;20214;-83
2022/06/13 08:54:57;;;;;;;1.25;0.68;;;;;;;;;;5034194;28;20237;-88
2022/06/13 08:57:26;;;;;;;1.15;0.80;;;;;;;;;;5038192;28;20202;-90
2022/06/13 08:59:55;;;;;;;0.88;0.73;;;;;;;;;;5036807;28;20231;-89
2022/06/13 09:02:23;;;;;;;1.20;0.82;;;;;;;;;;5035817;28;20207;-90
2022/06/13 09:04:53;;;;;;;1.75;0.70;;;;;;;;;;5034976;28;20703;-89
2022/06/13 09:07:23;;;;;;;0.60;0.60;;;;;;;;;;5035737;28;20213;-90
2022/06/13 09:09:54;;;;;;;1.23;0.63;;;;;;;;;;5038928;28;20230;-88
2022/06/13 09:12:28;;;;;;;1.00;0.70;;;;;;;;;;5034938;28;20206;-91
2022/06/13 09:14:59;;;;;;;1.45;0.90;;;;;;;;;;5047589;28;20231;-88
2022/06/13 09:17:29;;;;;;;1.73;0.88;;;;;;;;;;5036921;28;20191;-90
2022/06/13 09:19:59;;;;;;;1.20;1.00;;;;;;;;;;5035754;28;20230;-89
2022/06/13 09:22:28;;;;;;;3.03;1.05;;;;;;;;;;5035767;28;20218;-89
2022/06/13 09:24:59;;;;;;;1.92;1.15;;;;;;;;;;5034008;28;20699;-88
2022/06/13 09:27:29;;;;;;;0.57;0.57;;;;;;;;;;5034563;28;20206;-88
2022/06/13 09:29:59;;;;;;;2.03;0.88;;;;;;;;;;5038935;28;20238;-89
2022/06/13 09:32:28;;;;;;;2.10;1.67;;;;;;;;;;5042173;28;20651;-89
2022/06/13 09:34:58;;;;;;;1.15;0.75;;;;;;;;;;5034611;28;20600;-90
2022/06/13 09:37:29;;;;;;;1.20;0.90;;;;;;;;;;5035550;28;20272;-88
2022/06/13 09:39:56;;;;;;;2.03;0.90;;;;;;;;;;5033709;28;20238;-88
2022/06/13 09:42:36;;;;;;;0.90;0.82;;;;;;;;;;5034787;28;20207;-88
2022/06/13 09:45:21;;;;;;;2.20;1.00;;;;;;;;;;5038946;28;20768;-91
2022/06/13 09:47:53;;;;;;;1.20;1.10;;;;;;;;;;5053944;28;20707;-89
2022/06/13 09:50:25;;;;;;;1.20;0.95;;;;;;;;;;5053842;28;20283;-89
2022/06/13 09:52:56;;;;;;;0.85;0.73;;;;;;;;;;5053461;28;20194;-89
2022/06/13 09:55:26;;;;;;;3.42;1.15;;;;;;;;;;5036400;28;20592;-90
2022/06/13 09:58:00;;;;;;;1.80;0.85;;;;;;;;;;5034697;28;20207;-89
2022/06/13 10:00:30;;;;;;;1.25;1.10;;;;;;;;;;5034640;28;20243;-90
2022/06/13 10:03:02;;;;;;;1.00;0.85;;;;;;;;;;5035790;28;20743;-90
2022/06/13 10:05:35;;;;;;;1.00;0.70;;;;;;;;;;5033534;28;20242;-90
2022/06/13 10:08:07;;;;;;;1.05;0.95;;;;;;;;;;5036010;28;20297;-91
2022/06/13 10:10:38;;;;;;;1.15;0.93;;;;;;;;;;5038123;28;20246;-90
2022/06/13 10:13:16;;;;;;;1.52;0.90;;;;;;;;;;5036063;28;20203;-91
2022/06/13 10:15:46;;;;;;;1.52;1.15;;;;;;;;;;5036630;28;20245;-90
2022/06/13 10:18:27;;;;;;;0.70;0.70;;;;;;;;;;5034716;28;20586;-90
2022/06/13 10:20:58;;;;;;;2.45;1.23;;;;;;;;;;5034024;28;20234;-88
2022/06/13 10:23:30;;;;;;;0.98;0.90;;;;;;;;;;5033440;28;20675;-88
2022/06/13 10:26:03;;;;;;;1.67;1.02;;;;;;;;;;5033571;28;20238;-89
2022/06/13 10:28:48;;;;;;;0.88;0.82;;;;;;;;;;5035362;28;20223;-90
2022/06/13 10:31:23;;;;;;;1.45;1.15;;;;;;;;;;5044520;28;20261;-89
2022/06/13 10:33:55;;;;;;;1.30;1.15;;;;;;;;;;5034753;28;20201;-88
2022/06/13 10:36:25;;;;;;;1.30;0.95;;;;;;;;;;5033678;28;20245;-88
2022/06/13 10:38:57;;;;;;;1.48;0.93;;;;;;;;;;5034262;28;20214;-88
2022/06/13 10:41:25;;;;;;;1.65;1.08;;;;;;;;;;5032828;28;20499;-87
2022/06/13 10:43:52;;;;;;;1.92;1.10;;;;;;;;;;5033047;28;20214;-87
2022/06/13 10:46:20;;;;;;;1.27;1.10;;;;;;;;;;5032661;28;20238;-88
2022/06/13 10:48:50;;;;;;;1.42;1.02;;;;;;;;;;5033270;28;20639;-89
2022/06/13 10:51:18;;;;;;;1.13;0.80;;;;;;;;;;5045823;28;20230;-88
2022/06/13 10:53:47;;;;;;;1.15;0.93;;;;;;;;;;5039427;28;20245;-89
2022/06/13 10:56:16;;;;;;;1.75;0.80;;;;;;;;;;5033396;28;20243;-87
2022/06/13 10:58:45;;;;;;;0.75;0.75;;;;;;;;;;5032756;28;20210;-88
2022/06/13 11:01:13;;;;;;;1.88;0.95;;;;;;;;;;5032311;28;20246;-87
2022/06/13 11:03:58;;;;;;;1.45;1.05;;;;;;;;;;5032422;28;20214;-87
2022/06/13 11:06:27;;;;;;;1.38;0.90;;;;;;;;;;5032261;28;20303;-87
2022/06/13 11:09:00;;;;;;;2.25;1.27;;;;;;;;;;5032848;28;20235;-87
2022/06/13 11:11:32;;;;;;;1.27;0.95;;;;;;;;;;5032608;28;20258;-88
2022/06/13 11:14:00;;;;;;;0.80;0.80;;;;;;;;;;5032733;28;20632;-88
2022/06/13 11:24:48;;;;;;;2.58;1.17;;;;;;;;;;5037273;28;20594;-90
2022/06/13 11:27:42;;;;;;;1.30;1.10;;;;;;;;;;5036506;28;20595;-86
2022/06/13 11:30:31;;;;;;;0.98;0.85;;;;;;;;;;5036175;28;20292;-86
2022/06/13 11:32:59;;;;;;;1.85;1.10;;;;;;;;;;5036906;28;20194;-85
2022/06/13 11:35:32;;;;;;;1.40;0.80;;;;;;;;;;5035307;28;20237;-87
2022/06/13 11:38:12;;;;;;;1.67;1.13;;;;;;;;;;5036121;28;20198;-86
2022/06/13 11:40:39;;;;;;;1.95;0.93;;;;;;;;;;5035642;28;20226;-88
2022/06/13 11:43:06;;;;;;;1.13;0.77;;;;;;;;;;5035333;28;20214;-85
2022/06/13 11:45:33;;;;;;;0.77;0.77;;;;;;;;;;5035356;28;20253;-86
2022/06/13 11:48:00;;;;;;;2.10;1.10;;;;;;;;;;5035344;28;20203;-85
2022/06/13 11:50:29;;;;;;;2.03;1.17;;;;;;;;;;5035279;28;20234;-85
2022/06/13 11:55:51;;;;;;;1.13;1.00;;;;;;;;;;5035198;28;20292;-84
2022/06/13 11:58:19;;;;;;;0.95;0.90;;;;;;;;;;5039269;28;20614;-85
2022/06/13 12:00:51;;;;;;;3.08;1.30;;;;;;;;;;5054774;28;20241;-87
2022/06/13 12:03:19;;;;;;;1.00;0.98;;;;;;;;;;5055377;28;20573;-85
2022/06/13 12:05:50;;;;;;;1.45;1.17;;;;;;;;;;5054413;28;20244;-86
2022/06/13 12:08:27;;;;;;;1.48;0.93;;;;;;;;;;5056236;28;20186;-85
2022/06/13 12:10:56;;;;;;;1.45;0.90;;;;;;;;;;5043888;28;20281;-86
2022/06/13 12:13:23;;;;;;;1.63;1.23;;;;;;;;;;5035441;28;20215;-86
2022/06/13 12:15:55;;;;;;;0.98;0.85;;;;;;;;;;5035111;28;20365;-85
2022/06/13 12:18:27;;;;;;;2.13;1.10;;;;;;;;;;5036759;28;20211;-86
2022/06/13 12:20:57;;;;;;;1.58;0.95;;;;;;;;;;5036581;28;20238;-86
2022/06/13 12:23:30;;;;;;;1.85;1.17;;;;;;;;;;5035681;28;20213;-84
2022/06/13 12:25:59;;;;;;;1.17;0.95;;;;;;;;;;5051086;28;20246;-89
2022/06/13 12:28:31;;;;;;;1.35;0.90;;;;;;;;;;5055049;28;20210;-87
2022/06/13 12:31:02;;;;;;;1.75;1.35;;;;;;;;;;5054423;28;20241;-88
2022/06/13 12:33:35;;;;;;;2.72;1.10;;;;;;;;;;5055403;28;20198;-89
2022/06/13 12:36:10;;;;;;;1.33;1.00;;;;;;;;;;5054474;28;20333;-86
2022/06/13 12:38:45;;;;;;;5.05;1.30;;;;;;;;;;5054840;28;20205;-86
2022/06/13 12:41:15;;;;;;;1.13;1.00;;;;;;;;;;5054316;28;20706;-85
2022/06/13 12:44:01;;;;;;;1.08;1.00;;;;;;;;;;5054540;28;20185;-87
2022/06/13 12:46:35;;;;;;;2.03;1.40;;;;;;;;;;5055018;28;20670;-86
2022/06/13 12:49:18;;;;;;;2.08;1.25;;;;;;;;;;5054320;28;20217;-86
2022/06/13 12:51:49;;;;;;;1.23;1.10;;;;;;;;;;5055349;28;20569;-86
2022/06/13 12:54:28;;;;;;;1.38;1.00;;;;;;;;;;5054290;28;20647;-85
2022/06/13 12:56:59;;;;;;;1.58;1.30;;;;;;;;;;5054260;28;20225;-85
2022/06/13 12:59:32;;;;;;;2.58;1.30;;;;;;;;;;5054448;28;20522;-85
2022/06/13 13:02:03;;;;;;;1.80;1.33;;;;;;;;;;5054510;28;20202;-86
2022/06/13 13:04:45;;;;;;;1.42;1.27;;;;;;;;;;5053832;28;20238;-84
2022/06/13 13:07:17;;;;;;;1.58;1.45;;;;;;;;;;5057747;28;20440;-84
2022/06/13 13:10:01;;;;;;;2.33;1.20;;;;;;;;;;5053808;28;20242;-85
2022/06/13 13:12:40;;;;;;;1.40;1.30;;;;;;;;;;5055375;28;20187;-87
2022/06/13 13:15:11;;;;;;;1.42;1.33;;;;;;;;;;5077938;23;20253;-85
2022/06/13 13:17:46;;;;;;;2.00;1.13;;;;;;;;;;5058749;28;20202;-85
2022/06/13 13:20:16;;;;;;;2.13;1.30;;;;;;;;;;5057358;28;20237;-85
2022/06/13 13:22:46;;;;;;;1.75;1.40;;;;;;;;;;5054398;28;20580;-85
2022/06/13 13:25:19;;;;;;;2.38;1.40;;;;;;;;;;5053662;28;20245;-85
2022/06/13 13:27:52;;;;;;;1.70;1.60;;;;;;;;;;5035839;28;20305;-85
2022/06/13 13:30:21;;;;;;;1.15;1.15;;;;;;;;;;5033769;28;20325;-87
2022/06/13 13:32:59;;;;;;;1.55;1.20;;;;;;;;;;5017528;28;20672;-87
2022/06/13 13:35:28;;;;;;;1.40;1.30;;;;;;;;;;5036312;28;20234;-86
2022/06/13 13:38:00;;;;;;;1.38;1.27;;;;;;;;;;5034408;28;20203;-86
2022/06/13 13:40:39;;;;;;;2.63;1.50;;;;;;;;;;5033447;28;20317;-87
2022/06/13 13:43:09;;;;;;;1.58;1.20;;;;;;;;;;5033815;28;20211;-87
2022/06/13 13:45:38;;;;;;;1.70;1.50;;;;;;;;;;5042132;28;20238;-85
2022/06/13 13:48:13;;;;;;;1.95;1.30;;;;;;;;;;5054275;28;20867;-87
2022/06/13 13:50:45;;;;;;;3.10;1.35;;;;;;;;;;5053521;28;20245;-87
2022/06/13 13:53:13;;;;;;;1.75;1.33;;;;;;;;;;5056528;28;20217;-86
2022/06/13 13:55:47;;;;;;;1.58;1.42;;;;;;;;;;5053772;28;20269;-86
2022/06/13 13:58:19;;;;;;;3.72;1.50;;;;;;;;;;5053697;28;20217;-85
2022/06/13 14:00:50;;;;;;;3.05;1.48;;;;;;;;;;5053978;28;20859;-86
2022/06/13 14:03:22;;;;;;;1.73;1.27;;;;;;;;;;5054741;28;20273;-85
2022/06/13 14:05:54;;;;;;;2.60;1.45;;;;;;;;;;5053520;28;20245;-87
2022/06/13 14:08:23;;;;;;;1.73;1.63;;;;;;;;;;5053680;28;20194;-86
2022/06/13 14:10:54;;;;;;;2.40;1.55;;;;;;;;;;5053297;28;20244;-85
2022/06/13 14:13:23;;;;;;;2.50;1.50;;;;;;;;;;5053639;28;20245;-86
2022/06/13 14:16:17;;;;;;;3.53;1.50;;;;;;;;;;5053647;28;20238;-87
2022/06/13 14:18:56;;;;;;;2.75;1.40;;;;;;;;;;5053284;28;20198;-86
2022/06/13 14:21:37;;;;;;;1.23;1.17;;;;;;;;;;5052861;28;20230;-86
2022/06/13 14:24:10;;;;;;;1.50;1.40;;;;;;;;;;5052711;28;20229;-86
2022/06/13 14:26:59;;;;;;;1.65;1.20;;;;;;;;;;5053612;28;20598;-88
2022/06/13 14:29:29;;;;;;;1.70;1.50;;;;;;;;;;5054461;28;20230;-87
2022/06/13 14:31:57;;;;;;;2.25;1.20;;;;;;;;;;5039753;28;20207;-86
2022/06/13 14:37:20;;;;;;;3.92;1.58;;;;;;;;;;5017791;28;20202;-86
2022/06/13 14:39:48;;;;;;;1.48;1.02;;;;;;;;;;5015280;28;20235;-87
2022/06/13 14:42:24;;;;;;;1.98;1.27;;;;;;;;;;5019557;28;20563;-89
2022/06/13 14:44:59;;;;;;;1.50;1.40;;;;;;;;;;5015044;28;20235;-89
2022/06/13 14:47:35;;;;;;;1.52;1.30;;;;;;;;;;5017846;28;20195;-87
2022/06/13 14:50:02;;;;;;;2.25;1.45;;;;;;;;;;5028969;28;20265;-88
2022/06/13 14:52:30;;;;;;;2.35;1.42;;;;;;;;;;5032918;28;20207;-87
2022/06/13 14:55:24;;;;;;;2.20;1.55;;;;;;;;;;5034825;28;20242;-86
2022/06/13 14:57:54;;;;;;;4.40;1.80;;;;;;;;;;5039175;28;20210;-84
2022/06/13 15:00:23;;;;;;;2.58;1.38;;;;;;;;;;5032685;28;20230;-85
2022/06/13 15:03:05;;;;;;;3.00;1.50;;;;;;;;;;5040417;28;20217;-84
2022/06/13 15:05:54;;;;;;;1.40;1.30;;;;;;;;;;5036815;28;20242;-84
2022/06/13 15:08:27;;;;;;;2.40;1.42;;;;;;;;;;5034042;28;20218;-84
2022/06/13 15:10:55;;;;;;;4.07;1.48;;;;;;;;;;5032022;28;20230;-84
2022/06/13 15:13:25;;;;;;;1.60;1.35;;;;;;;;;;5033892;28;20772;-86
2022/06/13 15:15:56;;;;;;;2.67;1.60;;;;;;;;;;5031920;28;20280;-87
2022/06/13 15:18:24;;;;;;;2.58;1.50;;;;;;;;;;5032169;28;20325;-86
2022/06/13 15:20:51;;;;;;;4.07;1.80;;;;;;;;;;5032114;28;20280;-87
2022/06/13 15:23:19;;;;;;;2.55;1.58;;;;;;;;;;5032792;28;20211;-85
2022/06/13 15:25:49;;;;;;;1.67;1.58;;;;;;;;;;5032790;28;20295;-84
2022/06/13 15:28:17;;;;;;;1.50;1.20;;;;;;;;;;5043872;28;20206;-88
2022/06/13 15:30:46;;;;;;;4.78;2.03;;;;;;;;;;5049182;28;20237;-87